sensor_id;sensor_type;location;lat;lon;timestamp;temperature;humidity
530;DHT22;251;48.704;9.210;2024-02-16T00:01:49;6.70;74.90
530;DHT22;251;48.704;9.210;2024-02-16T00:04:17;6.70;74.00
530;DHT22;251;48.704;9.210;2024-02-16T00:09:49;6.70;77.00
530;DHT22;251;48.704;9.210;2024-02-16T00:12:16;6.70;72.60
530;DHT22;251;48.704;9.210;2024-02-16T00:14:42;6.70;73.70
530;DHT22;251;48.704;9.210;2024-02-16T00:17:11;6.70;73.00
530;DHT22;251;48.704;9.210;2024-02-16T00:19:38;6.70;72.50
530;DHT22;251;48.704;9.210;2024-02-16T00:22:05;6.70;72.60
530;DHT22;251;48.704;9.210;2024-02-16T00:24:32;6.70;72.80
530;DHT22;251;48.704;9.210;2024-02-16T00:27:01;6.80;73.10
530;DHT22;251;48.704;9.210;2024-02-16T00:29:28;6.80;72.60
530;DHT22;251;48.704;9.210;2024-02-16T00:31:55;6.80;74.60
530;DHT22;251;48.704;9.210;2024-02-16T00:34:24;6.80;75.50
530;DHT22;251;48.704;9.210;2024-02-16T00:36:51;6.90;75.90
530;DHT22;251;48.704;9.210;2024-02-16T00:39:18;6.80;73.40
530;DHT22;251;48.704;9.210;2024-02-16T00:41:45;6.90;74.10
530;DHT22;251;48.704;9.210;2024-02-16T00:44:13;6.90;73.50
530;DHT22;251;48.704;9.210;2024-02-16T00:46:40;6.90;73.40
530;DHT22;251;48.704;9.210;2024-02-16T00:49:07;6.90;72.10
530;DHT22;251;48.704;9.210;2024-02-16T00:51:35;6.90;73.10
530;DHT22;251;48.704;9.210;2024-02-16T00:54:02;6.90;74.30
530;DHT22;251;48.704;9.210;2024-02-16T00:56:30;6.90;75.30
530;DHT22;251;48.704;9.210;2024-02-16T00:58:56;6.90;73.50
530;DHT22;251;48.704;9.210;2024-02-16T01:01:24;7.00;74.80
530;DHT22;251;48.704;9.210;2024-02-16T01:03:51;7.00;75.20
530;DHT22;251;48.704;9.210;2024-02-16T01:06:19;7.00;75.10
530;DHT22;251;48.704;9.210;2024-02-16T01:08:45;7.10;75.10
530;DHT22;251;48.704;9.210;2024-02-16T01:11:13;7.00;74.60
530;DHT22;251;48.704;9.210;2024-02-16T01:13:39;7.00;75.70
530;DHT22;251;48.704;9.210;2024-02-16T01:16:07;7.10;76.40
530;DHT22;251;48.704;9.210;2024-02-16T01:18:35;7.10;76.10
530;DHT22;251;48.704;9.210;2024-02-16T01:21:03;7.10;77.50
530;DHT22;251;48.704;9.210;2024-02-16T01:23:30;7.10;75.90
530;DHT22;251;48.704;9.210;2024-02-16T01:25:56;7.10;75.60
530;DHT22;251;48.704;9.210;2024-02-16T01:28:23;7.10;75.30
530;DHT22;251;48.704;9.210;2024-02-16T01:30:50;7.10;74.20
530;DHT22;251;48.704;9.210;2024-02-16T01:33:17;7.10;73.90
530;DHT22;251;48.704;9.210;2024-02-16T01:35:45;7.10;74.10
530;DHT22;251;48.704;9.210;2024-02-16T01:38:12;7.10;74.60
530;DHT22;251;48.704;9.210;2024-02-16T01:40:39;7.10;74.90
530;DHT22;251;48.704;9.210;2024-02-16T01:43:07;7.10;75.90
530;DHT22;251;48.704;9.210;2024-02-16T01:45:33;7.10;76.70
530;DHT22;251;48.704;9.210;2024-02-16T01:48:00;7.20;77.70
530;DHT22;251;48.704;9.210;2024-02-16T01:50:27;7.20;75.60
530;DHT22;251;48.704;9.210;2024-02-16T01:52:56;7.20;75.30
530;DHT22;251;48.704;9.210;2024-02-16T01:55:23;7.20;73.30
530;DHT22;251;48.704;9.210;2024-02-16T01:57:55;7.20;74.80
530;DHT22;251;48.704;9.210;2024-02-16T02:00:24;7.20;75.60
530;DHT22;251;48.704;9.210;2024-02-16T02:02:51;7.20;76.30
530;DHT22;251;48.704;9.210;2024-02-16T02:05:18;7.20;76.50
530;DHT22;251;48.704;9.210;2024-02-16T02:07:44;7.20;77.70
530;DHT22;251;48.704;9.210;2024-02-16T02:10:13;7.30;78.20
530;DHT22;251;48.704;9.210;2024-02-16T02:12:39;7.30;77.40
530;DHT22;251;48.704;9.210;2024-02-16T02:15:08;7.30;77.70
530;DHT22;251;48.704;9.210;2024-02-16T02:17:35;7.40;77.00
530;DHT22;251;48.704;9.210;2024-02-16T02:20:02;7.40;77.20
530;DHT22;251;48.704;9.210;2024-02-16T02:22:30;7.40;75.80
530;DHT22;251;48.704;9.210;2024-02-16T02:24:57;7.40;77.50
530;DHT22;251;48.704;9.210;2024-02-16T02:27:25;7.50;77.90
530;DHT22;251;48.704;9.210;2024-02-16T02:29:51;7.50;78.70
530;DHT22;251;48.704;9.210;2024-02-16T02:32:18;7.50;78.90
530;DHT22;251;48.704;9.210;2024-02-16T02:34:46;7.50;79.60
530;DHT22;251;48.704;9.210;2024-02-16T02:37:13;7.50;78.60
530;DHT22;251;48.704;9.210;2024-02-16T02:39:41;7.50;78.50
530;DHT22;251;48.704;9.210;2024-02-16T02:42:09;7.50;78.50
530;DHT22;251;48.704;9.210;2024-02-16T02:44:36;7.50;78.40
530;DHT22;251;48.704;9.210;2024-02-16T02:47:03;7.50;78.70
530;DHT22;251;48.704;9.210;2024-02-16T02:49:29;7.50;79.20
530;DHT22;251;48.704;9.210;2024-02-16T02:51:57;7.50;80.20
530;DHT22;251;48.704;9.210;2024-02-16T02:54:24;7.50;79.70
530;DHT22;251;48.704;9.210;2024-02-16T02:56:52;7.50;79.40
530;DHT22;251;48.704;9.210;2024-02-16T02:59:19;7.50;79.50
530;DHT22;251;48.704;9.210;2024-02-16T03:01:45;7.50;80.70
530;DHT22;251;48.704;9.210;2024-02-16T03:04:12;7.50;79.90
530;DHT22;251;48.704;9.210;2024-02-16T03:06:39;7.50;79.40
530;DHT22;251;48.704;9.210;2024-02-16T03:09:05;7.50;79.00
530;DHT22;251;48.704;9.210;2024-02-16T03:11:32;7.50;79.80
530;DHT22;251;48.704;9.210;2024-02-16T03:14:00;7.50;80.90
530;DHT22;251;48.704;9.210;2024-02-16T03:16:28;7.50;81.40
530;DHT22;251;48.704;9.210;2024-02-16T03:18:55;7.50;81.90
530;DHT22;251;48.704;9.210;2024-02-16T03:21:22;7.50;82.90
530;DHT22;251;48.704;9.210;2024-02-16T03:23:48;7.50;83.10
530;DHT22;251;48.704;9.210;2024-02-16T03:26:16;7.50;83.10
530;DHT22;251;48.704;9.210;2024-02-16T03:28:44;7.40;82.80
530;DHT22;251;48.704;9.210;2024-02-16T03:31:23;7.50;82.50
530;DHT22;251;48.704;9.210;2024-02-16T03:33:51;7.40;83.10
530;DHT22;251;48.704;9.210;2024-02-16T03:36:19;7.40;85.90
530;DHT22;251;48.704;9.210;2024-02-16T03:38:48;7.30;86.70
530;DHT22;251;48.704;9.210;2024-02-16T03:41:18;7.30;87.20
530;DHT22;251;48.704;9.210;2024-02-16T03:43:45;7.30;86.40
530;DHT22;251;48.704;9.210;2024-02-16T03:46:14;7.30;87.30
530;DHT22;251;48.704;9.210;2024-02-16T03:48:42;7.30;87.20
530;DHT22;251;48.704;9.210;2024-02-16T03:51:10;7.30;86.70
530;DHT22;251;48.704;9.210;2024-02-16T03:53:37;7.30;87.20
530;DHT22;251;48.704;9.210;2024-02-16T03:56:04;7.30;87.10
530;DHT22;251;48.704;9.210;2024-02-16T03:58:33;7.30;86.10
530;DHT22;251;48.704;9.210;2024-02-16T04:00:59;7.30;84.90
530;DHT22;251;48.704;9.210;2024-02-16T04:03:26;7.30;86.00
530;DHT22;251;48.704;9.210;2024-02-16T04:05:54;7.30;86.10
530;DHT22;251;48.704;9.210;2024-02-16T04:08:21;7.30;86.30
530;DHT22;251;48.704;9.210;2024-02-16T04:10:48;7.30;88.10
530;DHT22;251;48.704;9.210;2024-02-16T04:13:15;7.40;87.70
530;DHT22;251;48.704;9.210;2024-02-16T04:15:41;7.40;86.90
530;DHT22;251;48.704;9.210;2024-02-16T04:18:08;7.40;86.70
530;DHT22;251;48.704;9.210;2024-02-16T04:20:35;7.40;86.60
530;DHT22;251;48.704;9.210;2024-02-16T04:23:04;7.40;85.70
530;DHT22;251;48.704;9.210;2024-02-16T04:25:31;7.40;85.30
530;DHT22;251;48.704;9.210;2024-02-16T04:27:58;7.40;84.40
530;DHT22;251;48.704;9.210;2024-02-16T04:30:25;7.40;84.60
530;DHT22;251;48.704;9.210;2024-02-16T04:32:51;7.40;84.80
530;DHT22;251;48.704;9.210;2024-02-16T04:35:19;7.40;85.10
530;DHT22;251;48.704;9.210;2024-02-16T04:37:45;7.30;86.80
530;DHT22;251;48.704;9.210;2024-02-16T04:40:14;7.30;86.90
530;DHT22;251;48.704;9.210;2024-02-16T04:42:41;7.30;87.60
530;DHT22;251;48.704;9.210;2024-02-16T04:45:11;7.30;86.80
530;DHT22;251;48.704;9.210;2024-02-16T04:47:37;7.30;87.20
530;DHT22;251;48.704;9.210;2024-02-16T04:50:05;7.30;88.10
530;DHT22;251;48.704;9.210;2024-02-16T04:52:36;7.30;88.50
530;DHT22;251;48.704;9.210;2024-02-16T04:55:03;7.30;88.90
530;DHT22;251;48.704;9.210;2024-02-16T04:57:32;7.30;88.20
530;DHT22;251;48.704;9.210;2024-02-16T04:59:59;7.30;88.80
530;DHT22;251;48.704;9.210;2024-02-16T05:02:26;7.30;89.50
530;DHT22;251;48.704;9.210;2024-02-16T05:04:53;7.30;89.30
530;DHT22;251;48.704;9.210;2024-02-16T05:07:19;7.30;88.20
530;DHT22;251;48.704;9.210;2024-02-16T05:09:46;7.40;87.40
530;DHT22;251;48.704;9.210;2024-02-16T05:12:13;7.40;87.50
530;DHT22;251;48.704;9.210;2024-02-16T05:14:41;7.40;87.20
530;DHT22;251;48.704;9.210;2024-02-16T05:17:08;7.30;87.20
530;DHT22;251;48.704;9.210;2024-02-16T05:19:35;7.40;86.70
530;DHT22;251;48.704;9.210;2024-02-16T05:22:02;7.40;86.40
530;DHT22;251;48.704;9.210;2024-02-16T05:24:29;7.40;86.70
530;DHT22;251;48.704;9.210;2024-02-16T05:26:56;7.40;87.20
530;DHT22;251;48.704;9.210;2024-02-16T05:29:23;7.40;86.50
530;DHT22;251;48.704;9.210;2024-02-16T05:31:53;7.40;86.00
530;DHT22;251;48.704;9.210;2024-02-16T05:34:20;7.40;85.20
530;DHT22;251;48.704;9.210;2024-02-16T05:36:47;7.50;85.20
530;DHT22;251;48.704;9.210;2024-02-16T05:39:13;7.50;84.80
530;DHT22;251;48.704;9.210;2024-02-16T05:41:52;7.40;84.30
530;DHT22;251;48.704;9.210;2024-02-16T05:44:18;7.40;85.80
530;DHT22;251;48.704;9.210;2024-02-16T05:46:46;7.40;86.20
530;DHT22;251;48.704;9.210;2024-02-16T05:49:14;7.40;84.80
530;DHT22;251;48.704;9.210;2024-02-16T05:51:41;7.30;86.10
530;DHT22;251;48.704;9.210;2024-02-16T05:54:24;7.30;86.90
530;DHT22;251;48.704;9.210;2024-02-16T05:56:51;7.30;88.20
530;DHT22;251;48.704;9.210;2024-02-16T05:59:17;7.30;88.90
530;DHT22;251;48.704;9.210;2024-02-16T06:01:44;7.30;89.00
530;DHT22;251;48.704;9.210;2024-02-16T06:04:11;7.30;89.20
530;DHT22;251;48.704;9.210;2024-02-16T06:06:40;7.20;88.80
530;DHT22;251;48.704;9.210;2024-02-16T06:09:07;7.20;88.20
530;DHT22;251;48.704;9.210;2024-02-16T06:11:36;7.10;90.30
530;DHT22;251;48.704;9.210;2024-02-16T06:14:03;7.10;91.40
530;DHT22;251;48.704;9.210;2024-02-16T06:16:30;7.10;92.10
530;DHT22;251;48.704;9.210;2024-02-16T06:18:56;7.10;92.20
530;DHT22;251;48.704;9.210;2024-02-16T06:21:23;7.10;92.70
530;DHT22;251;48.704;9.210;2024-02-16T06:23:51;7.10;92.80
530;DHT22;251;48.704;9.210;2024-02-16T06:26:18;7.10;92.60
530;DHT22;251;48.704;9.210;2024-02-16T06:28:46;7.00;92.70
530;DHT22;251;48.704;9.210;2024-02-16T06:31:13;7.00;92.70
530;DHT22;251;48.704;9.210;2024-02-16T06:33:40;7.00;93.00
530;DHT22;251;48.704;9.210;2024-02-16T06:36:07;7.00;92.90
530;DHT22;251;48.704;9.210;2024-02-16T06:38:35;7.00;92.90
530;DHT22;251;48.704;9.210;2024-02-16T06:41:03;7.00;93.30
530;DHT22;251;48.704;9.210;2024-02-16T06:43:30;7.00;93.30
530;DHT22;251;48.704;9.210;2024-02-16T06:45:57;7.00;93.10
530;DHT22;251;48.704;9.210;2024-02-16T06:48:23;7.00;93.00
530;DHT22;251;48.704;9.210;2024-02-16T06:50:50;7.00;93.00
530;DHT22;251;48.704;9.210;2024-02-16T06:53:17;7.00;93.10
530;DHT22;251;48.704;9.210;2024-02-16T06:55:44;7.00;93.00
530;DHT22;251;48.704;9.210;2024-02-16T06:58:12;7.00;93.00
530;DHT22;251;48.704;9.210;2024-02-16T07:00:39;7.00;92.70
530;DHT22;251;48.704;9.210;2024-02-16T07:03:07;7.00;92.50
530;DHT22;251;48.704;9.210;2024-02-16T07:05:34;7.00;92.70
530;DHT22;251;48.704;9.210;2024-02-16T07:08:01;7.10;92.30
530;DHT22;251;48.704;9.210;2024-02-16T07:10:29;7.00;92.10
530;DHT22;251;48.704;9.210;2024-02-16T07:12:56;7.10;91.50
530;DHT22;251;48.704;9.210;2024-02-16T07:15:24;7.10;91.40
530;DHT22;251;48.704;9.210;2024-02-16T07:17:52;7.10;91.20
530;DHT22;251;48.704;9.210;2024-02-16T07:20:19;7.10;90.60
530;DHT22;251;48.704;9.210;2024-02-16T07:22:45;7.20;90.60
530;DHT22;251;48.704;9.210;2024-02-16T07:25:12;7.20;90.30
530;DHT22;251;48.704;9.210;2024-02-16T07:27:39;7.20;90.00
530;DHT22;251;48.704;9.210;2024-02-16T07:30:07;7.30;89.60
530;DHT22;251;48.704;9.210;2024-02-16T07:32:37;7.30;89.50
530;DHT22;251;48.704;9.210;2024-02-16T07:35:05;7.30;88.80
530;DHT22;251;48.704;9.210;2024-02-16T07:37:33;7.40;88.90
530;DHT22;251;48.704;9.210;2024-02-16T07:40:00;7.40;88.80
530;DHT22;251;48.704;9.210;2024-02-16T07:42:27;7.40;87.80
530;DHT22;251;48.704;9.210;2024-02-16T07:44:53;7.50;87.20
530;DHT22;251;48.704;9.210;2024-02-16T07:47:20;7.50;86.10
530;DHT22;251;48.704;9.210;2024-02-16T07:49:48;7.50;85.90
530;DHT22;251;48.704;9.210;2024-02-16T07:52:16;7.60;85.90
530;DHT22;251;48.704;9.210;2024-02-16T07:54:43;7.50;85.20
530;DHT22;251;48.704;9.210;2024-02-16T07:57:09;7.60;83.20
530;DHT22;251;48.704;9.210;2024-02-16T07:59:36;7.60;82.50
530;DHT22;251;48.704;9.210;2024-02-16T08:02:03;7.70;82.70
530;DHT22;251;48.704;9.210;2024-02-16T08:04:30;7.70;83.00
530;DHT22;251;48.704;9.210;2024-02-16T08:06:58;7.70;82.80
530;DHT22;251;48.704;9.210;2024-02-16T08:09:26;7.70;83.30
530;DHT22;251;48.704;9.210;2024-02-16T08:11:53;7.70;83.10
530;DHT22;251;48.704;9.210;2024-02-16T08:14:20;7.80;82.60
530;DHT22;251;48.704;9.210;2024-02-16T08:16:47;7.90;80.90
530;DHT22;251;48.704;9.210;2024-02-16T08:19:14;8.00;79.40
530;DHT22;251;48.704;9.210;2024-02-16T08:21:41;8.10;78.20
530;DHT22;251;48.704;9.210;2024-02-16T08:24:09;8.20;75.50
530;DHT22;251;48.704;9.210;2024-02-16T08:26:35;8.30;73.00
530;DHT22;251;48.704;9.210;2024-02-16T08:29:02;8.40;71.40
530;DHT22;251;48.704;9.210;2024-02-16T08:31:29;8.50;70.30
530;DHT22;251;48.704;9.210;2024-02-16T08:33:56;8.60;68.20
530;DHT22;251;48.704;9.210;2024-02-16T08:36:23;8.70;66.90
530;DHT22;251;48.704;9.210;2024-02-16T08:38:54;8.80;64.70
530;DHT22;251;48.704;9.210;2024-02-16T08:41:23;9.00;61.70
530;DHT22;251;48.704;9.210;2024-02-16T08:43:50;9.10;58.60
530;DHT22;251;48.704;9.210;2024-02-16T08:46:17;9.20;58.10
530;DHT22;251;48.704;9.210;2024-02-16T08:48:44;9.30;57.40
530;DHT22;251;48.704;9.210;2024-02-16T08:51:11;9.40;53.90
530;DHT22;251;48.704;9.210;2024-02-16T08:53:39;9.50;51.10
530;DHT22;251;48.704;9.210;2024-02-16T08:56:09;9.70;45.90
530;DHT22;251;48.704;9.210;2024-02-16T08:58:37;9.90;43.90
530;DHT22;251;48.704;9.210;2024-02-16T09:01:04;10.10;42.90
530;DHT22;251;48.704;9.210;2024-02-16T09:03:31;10.20;41.60
530;DHT22;251;48.704;9.210;2024-02-16T09:06:02;10.30;40.80
530;DHT22;251;48.704;9.210;2024-02-16T09:08:29;10.40;39.80
530;DHT22;251;48.704;9.210;2024-02-16T09:10:58;10.50;39.60
530;DHT22;251;48.704;9.210;2024-02-16T09:13:25;10.70;38.60
530;DHT22;251;48.704;9.210;2024-02-16T09:15:53;10.80;37.80
530;DHT22;251;48.704;9.210;2024-02-16T09:18:20;11.00;37.20
530;DHT22;251;48.704;9.210;2024-02-16T09:20:46;11.10;35.90
530;DHT22;251;48.704;9.210;2024-02-16T09:23:14;11.30;30.50
530;DHT22;251;48.704;9.210;2024-02-16T09:25:41;11.70;28.40
530;DHT22;251;48.704;9.210;2024-02-16T09:28:09;12.00;26.70
530;DHT22;251;48.704;9.210;2024-02-16T09:30:36;12.20;26.30
530;DHT22;251;48.704;9.210;2024-02-16T09:33:05;12.50;25.20
530;DHT22;251;48.704;9.210;2024-02-16T09:35:32;12.70;24.40
530;DHT22;251;48.704;9.210;2024-02-16T09:37:59;13.10;22.70
530;DHT22;251;48.704;9.210;2024-02-16T09:40:26;13.30;22.40
530;DHT22;251;48.704;9.210;2024-02-16T09:42:53;13.50;22.50
530;DHT22;251;48.704;9.210;2024-02-16T09:45:20;13.70;21.40
530;DHT22;251;48.704;9.210;2024-02-16T09:47:48;13.90;20.70
530;DHT22;251;48.704;9.210;2024-02-16T09:50:17;14.20;19.90
530;DHT22;251;48.704;9.210;2024-02-16T09:52:48;14.40;18.30
530;DHT22;251;48.704;9.210;2024-02-16T09:55:16;14.60;17.80
530;DHT22;251;48.704;9.210;2024-02-16T09:57:43;14.80;17.30
530;DHT22;251;48.704;9.210;2024-02-16T10:00:11;14.90;16.90
530;DHT22;251;48.704;9.210;2024-02-16T10:02:42;15.00;16.10
530;DHT22;251;48.704;9.210;2024-02-16T10:05:13;15.10;15.70
530;DHT22;251;48.704;9.210;2024-02-16T10:07:42;15.20;15.80
530;DHT22;251;48.704;9.210;2024-02-16T10:10:20;15.30;15.30
530;DHT22;251;48.704;9.210;2024-02-16T10:12:47;15.40;15.00
530;DHT22;251;48.704;9.210;2024-02-16T10:15:19;15.50;15.00
530;DHT22;251;48.704;9.210;2024-02-16T10:17:57;15.60;15.00
530;DHT22;251;48.704;9.210;2024-02-16T10:20:24;15.70;14.90
530;DHT22;251;48.704;9.210;2024-02-16T10:23:04;15.80;14.30
530;DHT22;251;48.704;9.210;2024-02-16T10:25:30;15.90;14.20
530;DHT22;251;48.704;9.210;2024-02-16T10:27:57;16.10;13.20
530;DHT22;251;48.704;9.210;2024-02-16T10:30:28;16.20;13.30
530;DHT22;251;48.704;9.210;2024-02-16T10:32:56;16.30;12.80
530;DHT22;251;48.704;9.210;2024-02-16T10:35:25;16.40;12.00
530;DHT22;251;48.704;9.210;2024-02-16T10:37:52;16.50;11.00
530;DHT22;251;48.704;9.210;2024-02-16T10:40:23;16.60;11.00
530;DHT22;251;48.704;9.210;2024-02-16T10:42:50;16.70;12.10
530;DHT22;251;48.704;9.210;2024-02-16T10:45:17;16.70;11.10
530;DHT22;251;48.704;9.210;2024-02-16T10:47:45;16.80;12.20
530;DHT22;251;48.704;9.210;2024-02-16T10:50:12;16.80;11.20
530;DHT22;251;48.704;9.210;2024-02-16T10:52:41;16.80;10.50
530;DHT22;251;48.704;9.210;2024-02-16T10:55:10;16.70;10.80
530;DHT22;251;48.704;9.210;2024-02-16T10:57:39;16.70;10.90
530;DHT22;251;48.704;9.210;2024-02-16T11:00:08;16.60;10.90
530;DHT22;251;48.704;9.210;2024-02-16T11:02:52;16.50;10.70
530;DHT22;251;48.704;9.210;2024-02-16T11:05:31;16.50;11.10
530;DHT22;251;48.704;9.210;2024-02-16T11:08:00;16.40;11.50
530;DHT22;251;48.704;9.210;2024-02-16T11:10:27;16.40;11.80
530;DHT22;251;48.704;9.210;2024-02-16T11:13:01;16.40;12.00
530;DHT22;251;48.704;9.210;2024-02-16T11:15:30;16.40;11.30
530;DHT22;251;48.704;9.210;2024-02-16T11:18:00;16.40;11.80
530;DHT22;251;48.704;9.210;2024-02-16T11:20:27;16.40;11.60
530;DHT22;251;48.704;9.210;2024-02-16T11:23:05;16.40;12.00
530;DHT22;251;48.704;9.210;2024-02-16T11:25:32;16.40;12.00
530;DHT22;251;48.704;9.210;2024-02-16T11:28:01;16.50;12.10
530;DHT22;251;48.704;9.210;2024-02-16T11:30:32;16.50;12.10
530;DHT22;251;48.704;9.210;2024-02-16T11:33:00;16.60;11.70
530;DHT22;251;48.704;9.210;2024-02-16T11:35:26;16.70;11.50
530;DHT22;251;48.704;9.210;2024-02-16T11:37:55;16.70;11.00
530;DHT22;251;48.704;9.210;2024-02-16T11:40:22;16.80;10.70
530;DHT22;251;48.704;9.210;2024-02-16T11:42:56;16.80;11.30
530;DHT22;251;48.704;9.210;2024-02-16T11:45:25;16.90;10.70
530;DHT22;251;48.704;9.210;2024-02-16T11:48:02;17.00;11.00
530;DHT22;251;48.704;9.210;2024-02-16T11:50:28;17.20;11.20
530;DHT22;251;48.704;9.210;2024-02-16T11:52:55;17.20;10.10
530;DHT22;251;48.704;9.210;2024-02-16T11:55:22;17.50;10.50
530;DHT22;251;48.704;9.210;2024-02-16T11:57:49;17.80;9.00
530;DHT22;251;48.704;9.210;2024-02-16T12:00:16;18.10;9.10
530;DHT22;251;48.704;9.210;2024-02-16T12:02:45;18.30;8.40
530;DHT22;251;48.704;9.210;2024-02-16T12:05:13;18.40;7.90
530;DHT22;251;48.704;9.210;2024-02-16T12:07:40;18.50;8.30
530;DHT22;251;48.704;9.210;2024-02-16T12:10:07;18.60;7.20
530;DHT22;251;48.704;9.210;2024-02-16T12:12:34;18.50;6.90
530;DHT22;251;48.704;9.210;2024-02-16T12:15:01;18.40;7.80
530;DHT22;251;48.704;9.210;2024-02-16T12:17:29;18.40;7.50
530;DHT22;251;48.704;9.210;2024-02-16T12:19:57;18.40;7.80
530;DHT22;251;48.704;9.210;2024-02-16T12:22:24;18.50;8.20
530;DHT22;251;48.704;9.210;2024-02-16T12:24:51;18.60;7.90
530;DHT22;251;48.704;9.210;2024-02-16T12:27:18;18.70;7.30
530;DHT22;251;48.704;9.210;2024-02-16T12:29:44;18.70;7.50
530;DHT22;251;48.704;9.210;2024-02-16T12:32:11;18.80;7.60
530;DHT22;251;48.704;9.210;2024-02-16T12:34:43;18.90;6.80
530;DHT22;251;48.704;9.210;2024-02-16T12:37:11;18.90;6.60
530;DHT22;251;48.704;9.210;2024-02-16T12:39:38;18.90;6.10
530;DHT22;251;48.704;9.210;2024-02-16T12:42:06;18.90;6.40
530;DHT22;251;48.704;9.210;2024-02-16T12:44:32;18.70;6.40
530;DHT22;251;48.704;9.210;2024-02-16T12:46:59;18.70;7.10
530;DHT22;251;48.704;9.210;2024-02-16T12:49:26;18.60;7.30
530;DHT22;251;48.704;9.210;2024-02-16T12:51:52;18.50;7.30
530;DHT22;251;48.704;9.210;2024-02-16T12:54:21;18.50;8.20
530;DHT22;251;48.704;9.210;2024-02-16T12:56:48;18.40;7.80
530;DHT22;251;48.704;9.210;2024-02-16T12:59:15;18.30;7.80
530;DHT22;251;48.704;9.210;2024-02-16T13:01:42;18.30;8.00
530;DHT22;251;48.704;9.210;2024-02-16T13:04:09;18.30;8.50
530;DHT22;251;48.704;9.210;2024-02-16T13:06:35;18.20;8.50
530;DHT22;251;48.704;9.210;2024-02-16T13:09:02;18.20;8.90
530;DHT22;251;48.704;9.210;2024-02-16T13:11:32;18.10;9.50
530;DHT22;251;48.704;9.210;2024-02-16T13:13:59;18.00;9.70
530;DHT22;251;48.704;9.210;2024-02-16T13:16:26;18.00;9.70
530;DHT22;251;48.704;9.210;2024-02-16T13:18:53;18.00;9.80
530;DHT22;251;48.704;9.210;2024-02-16T13:21:19;17.90;9.70
530;DHT22;251;48.704;9.210;2024-02-16T13:23:46;17.90;9.80
530;DHT22;251;48.704;9.210;2024-02-16T13:26:13;17.80;10.20
530;DHT22;251;48.704;9.210;2024-02-16T13:28:41;17.70;11.10
530;DHT22;251;48.704;9.210;2024-02-16T13:31:08;17.70;10.50
530;DHT22;251;48.704;9.210;2024-02-16T13:33:35;17.80;11.60
530;DHT22;251;48.704;9.210;2024-02-16T13:36:02;17.70;11.40
530;DHT22;251;48.704;9.210;2024-02-16T13:38:30;17.80;12.10
530;DHT22;251;48.704;9.210;2024-02-16T13:40:57;17.80;12.90
530;DHT22;251;48.704;9.210;2024-02-16T13:43:24;17.80;12.40
530;DHT22;251;48.704;9.210;2024-02-16T13:45:54;17.70;12.20
530;DHT22;251;48.704;9.210;2024-02-16T13:48:23;17.70;12.50
530;DHT22;251;48.704;9.210;2024-02-16T13:50:50;17.60;12.30
530;DHT22;251;48.704;9.210;2024-02-16T13:53:17;17.60;12.80
530;DHT22;251;48.704;9.210;2024-02-16T13:55:44;17.70;12.90
530;DHT22;251;48.704;9.210;2024-02-16T13:58:11;17.60;12.80
530;DHT22;251;48.704;9.210;2024-02-16T14:00:37;17.60;12.90
530;DHT22;251;48.704;9.210;2024-02-16T14:03:06;17.60;13.40
530;DHT22;251;48.704;9.210;2024-02-16T14:05:35;17.50;12.80
530;DHT22;251;48.704;9.210;2024-02-16T14:08:02;17.50;13.20
530;DHT22;251;48.704;9.210;2024-02-16T14:10:30;17.40;14.20
530;DHT22;251;48.704;9.210;2024-02-16T14:12:57;17.30;14.70
530;DHT22;251;48.704;9.210;2024-02-16T14:15:24;17.20;14.50
530;DHT22;251;48.704;9.210;2024-02-16T14:17:51;17.10;14.40
530;DHT22;251;48.704;9.210;2024-02-16T14:20:19;17.00;14.70
530;DHT22;251;48.704;9.210;2024-02-16T14:22:47;17.00;14.10
530;DHT22;251;48.704;9.210;2024-02-16T14:25:14;16.90;14.90
530;DHT22;251;48.704;9.210;2024-02-16T14:27:41;16.80;15.40
530;DHT22;251;48.704;9.210;2024-02-16T14:30:09;16.80;15.50
530;DHT22;251;48.704;9.210;2024-02-16T14:32:36;16.80;15.40
530;DHT22;251;48.704;9.210;2024-02-16T14:35:03;16.70;15.20
530;DHT22;251;48.704;9.210;2024-02-16T14:37:32;16.70;15.40
530;DHT22;251;48.704;9.210;2024-02-16T14:39:59;16.80;16.20
530;DHT22;251;48.704;9.210;2024-02-16T14:42:27;16.80;15.80
530;DHT22;251;48.704;9.210;2024-02-16T14:44:53;16.80;16.70
530;DHT22;251;48.704;9.210;2024-02-16T14:47:20;16.90;16.50
530;DHT22;251;48.704;9.210;2024-02-16T14:49:47;16.90;15.60
530;DHT22;251;48.704;9.210;2024-02-16T14:52:14;16.90;15.40
530;DHT22;251;48.704;9.210;2024-02-16T14:54:42;16.90;15.90
530;DHT22;251;48.704;9.210;2024-02-16T14:57:09;16.90;16.70
530;DHT22;251;48.704;9.210;2024-02-16T14:59:36;16.80;15.90
530;DHT22;251;48.704;9.210;2024-02-16T15:02:03;16.80;16.50
530;DHT22;251;48.704;9.210;2024-02-16T15:04:31;16.70;16.40
530;DHT22;251;48.704;9.210;2024-02-16T15:06:58;16.60;16.70
530;DHT22;251;48.704;9.210;2024-02-16T15:09:24;16.60;16.70
530;DHT22;251;48.704;9.210;2024-02-16T15:11:52;16.50;16.90
530;DHT22;251;48.704;9.210;2024-02-16T15:14:19;16.40;16.60
530;DHT22;251;48.704;9.210;2024-02-16T15:16:46;16.30;17.30
530;DHT22;251;48.704;9.210;2024-02-16T15:19:13;16.30;17.40
530;DHT22;251;48.704;9.210;2024-02-16T15:21:41;16.20;17.90
530;DHT22;251;48.704;9.210;2024-02-16T15:24:07;16.20;18.50
530;DHT22;251;48.704;9.210;2024-02-16T15:26:34;16.10;18.30
530;DHT22;251;48.704;9.210;2024-02-16T15:29:02;16.10;18.60
530;DHT22;251;48.704;9.210;2024-02-16T15:31:30;16.00;18.60
530;DHT22;251;48.704;9.210;2024-02-16T15:33:56;16.00;19.10
530;DHT22;251;48.704;9.210;2024-02-16T15:36:23;16.00;19.20
530;DHT22;251;48.704;9.210;2024-02-16T15:38:50;16.00;19.00
530;DHT22;251;48.704;9.210;2024-02-16T15:41:17;16.00;19.00
530;DHT22;251;48.704;9.210;2024-02-16T15:43:44;16.00;19.30
530;DHT22;251;48.704;9.210;2024-02-16T15:46:12;15.90;19.10
530;DHT22;251;48.704;9.210;2024-02-16T15:48:38;15.90;19.10
530;DHT22;251;48.704;9.210;2024-02-16T15:51:05;15.90;19.10
530;DHT22;251;48.704;9.210;2024-02-16T15:53:33;15.90;19.50
530;DHT22;251;48.704;9.210;2024-02-16T15:55:59;15.90;19.50
530;DHT22;251;48.704;9.210;2024-02-16T15:58:28;15.80;19.40
530;DHT22;251;48.704;9.210;2024-02-16T16:00:55;15.80;19.80
530;DHT22;251;48.704;9.210;2024-02-16T16:03:23;15.70;20.00
530;DHT22;251;48.704;9.210;2024-02-16T16:05:50;15.70;20.50
530;DHT22;251;48.704;9.210;2024-02-16T16:08:17;15.70;20.10
530;DHT22;251;48.704;9.210;2024-02-16T16:10:44;15.70;20.50
530;DHT22;251;48.704;9.210;2024-02-16T16:13:11;15.60;20.60
530;DHT22;251;48.704;9.210;2024-02-16T16:15:38;15.60;20.80
530;DHT22;251;48.704;9.210;2024-02-16T16:18:05;15.50;21.20
530;DHT22;251;48.704;9.210;2024-02-16T16:20:33;15.50;21.90
530;DHT22;251;48.704;9.210;2024-02-16T16:23:00;15.40;21.60
530;DHT22;251;48.704;9.210;2024-02-16T16:25:27;15.30;21.50
530;DHT22;251;48.704;9.210;2024-02-16T16:27:55;15.30;21.60
530;DHT22;251;48.704;9.210;2024-02-16T16:30:21;15.30;21.90
530;DHT22;251;48.704;9.210;2024-02-16T16:32:48;15.20;21.70
530;DHT22;251;48.704;9.210;2024-02-16T16:35:15;15.20;21.80
530;DHT22;251;48.704;9.210;2024-02-16T16:37:43;15.10;22.60
530;DHT22;251;48.704;9.210;2024-02-16T16:40:11;15.00;22.40
530;DHT22;251;48.704;9.210;2024-02-16T16:42:38;15.00;23.20
530;DHT22;251;48.704;9.210;2024-02-16T16:45:07;14.90;23.20
530;DHT22;251;48.704;9.210;2024-02-16T16:47:34;14.90;23.50
530;DHT22;251;48.704;9.210;2024-02-16T16:50:02;14.80;23.30